Markham, Canada
Current Conditions -  °F | °C
As of 6:00 AM on Saturday 20 Dec 2014 (Local Time) from CYKZ Reporting Station
Few Clouds Few Clouds  
Wind Chill: -8°   Ceiling: Unl
Heat Index: -8°   Visibility: 15mi
Dew Point: -10°   Wind: 0mph
Humidity: 86%   Direction: NA
Pressure: 30.29"   Gusts: NA
Location:  43.86°N, 79.34°W
Report Text: CYKZ 201100Z 00000KT 15SM FEW050 M08/M10 A3029 RMK SC1 SC TRFROIN SLP267
Loading
Personal Weather Stations






























Interactive Weather Map New forecast layout! Learn more

10-Day Weather Forecast

Advertisements
Track Severe Weather on mobile